Time;durP1;ratioP1;P1;durP2;ratioP2;P2;SDS_P1;SDS_P2;PMS_P1;PMS_P2;Temp;Humidity;BMP_temperature;BMP_pressure;BME280_temperature;BME280_humidity;BME280_pressure;Samples;Min_cycle;Max_cycle;Signal;HPM_P1;HPM_P2
2023/03/13 00:00:21;;;;;;;22.83;5.60;;;;;;;;;;5005522;28;20389;-62
2023/03/13 00:02:46;;;;;;;17.17;5.28;;;8.70;99.90;;;;;;5005007;28;20041;-62
2023/03/13 00:05:13;;;;;;;21.50;6.43;;;8.00;99.90;;;;;;5003671;28;20042;-62
2023/03/13 00:07:39;;;;;;;24.38;6.78;;;;;;;;;;5007328;28;20065;-63
2023/03/13 00:10:05;;;;;;;27.02;8.07;;;8.50;99.90;;;;;;5007574;28;20542;-63
2023/03/13 00:12:31;;;;;;;27.08;6.30;;;8.50;99.90;;;;;;4998473;28;20038;-62
2023/03/13 00:14:57;;;;;;;29.85;7.00;;;;;;;;;;5004916;28;20068;-63
2023/03/13 00:17:23;;;;;;;27.55;6.57;;;;;;;;;;5006487;28;20048;-62
2023/03/13 00:19:49;;;;;;;23.50;7.45;;;8.80;99.90;;;;;;5003176;28;20046;-63
2023/03/13 00:22:15;;;;;;;22.50;6.85;;;;;;;;;;5009288;28;20030;-63
2023/03/13 00:24:41;;;;;;;33.03;8.25;;;;;;;;;;5008357;28;20407;-63
2023/03/13 00:27:07;;;;;;;22.70;6.82;;;;;;;;;;4997346;28;20124;-62
2023/03/13 00:29:34;;;;;;;22.27;8.93;;;;;;;;;;4994770;28;20427;-62
2023/03/13 00:32:00;;;;;;;26.70;7.85;;;9.00;99.90;;;;;;5004942;28;20696;-63
2023/03/13 00:34:26;;;;;;;22.38;7.50;;;;;;;;;;5004739;28;20097;-62
2023/03/13 00:36:53;;;;;;;27.30;6.57;;;8.70;99.90;;;;;;4998861;28;20518;-63
2023/03/13 00:39:19;;;;;;;26.00;8.25;;;8.60;99.90;;;;;;5022430;28;20038;-63
2023/03/13 00:41:45;;;;;;;18.58;5.88;;;8.80;99.90;;;;;;5003172;28;20042;-62
2023/03/13 00:44:11;;;;;;;27.55;9.55;;;8.80;45.00;;;;;;5001365;28;20384;-62
2023/03/13 00:46:37;;;;;;;24.27;8.25;;;;;;;;;;5007628;28;20080;-61
2023/03/13 00:49:03;;;;;;;21.90;6.88;;;8.80;35.20;;;;;;4998481;28;20574;-62
2023/03/13 00:51:29;;;;;;;20.90;6.72;;;9.10;31.80;;;;;;5001270;28;20037;-62
2023/03/13 00:54:00;;;;;;;23.83;6.97;;;8.70;25.50;;;;;;5016640;28;20482;-62
2023/03/13 00:56:27;;;;;;;22.83;7.03;;;8.80;28.30;;;;;;5007579;28;20431;-63
2023/03/13 00:58:53;;;;;;;29.15;7.63;;;;;;;;;;5003893;28;20361;-62
2023/03/13 01:01:24;;;;;;;24.67;7.97;;;;;;;;;;5000879;28;20046;-62
2023/03/13 01:03:51;;;;;;;26.65;7.80;;;;;;;;;;5004707;28;20128;-62
2023/03/13 01:06:20;;;;;;;18.73;6.15;;;9.00;12.70;;;;;;5008627;28;20038;-62
2023/03/13 01:08:46;;;;;;;19.90;5.75;;;;;;;;;;5004976;28;20612;-62
2023/03/13 01:11:17;;;;;;;25.02;7.13;;;8.90;36.40;;;;;;5004108;28;20084;-62
2023/03/13 01:13:43;;;;;;;24.98;6.57;;;8.80;61.50;;;;;;5007963;28;20045;-62
2023/03/13 01:16:15;;;;;;;25.38;6.75;;;8.50;64.70;;;;;;5012290;28;20034;-62
2023/03/13 01:18:42;;;;;;;26.00;7.63;;;;;;;;;;5011687;28;20045;-62
2023/03/13 01:21:08;;;;;;;25.63;6.20;;;;;;;;;;5009931;28;20095;-62
2023/03/13 01:23:34;;;;;;;29.00;8.48;;;;;;;;;;5010105;28;20078;-62
2023/03/13 01:26:01;;;;;;;22.60;6.72;;;;;;;;;;5001942;28;20057;-62
2023/03/13 01:28:27;;;;;;;25.35;6.63;;;;;;;;;;4988920;28;20045;-63
2023/03/13 01:30:53;;;;;;;31.88;6.97;;;;;;;;;;5002669;28;20038;-62
2023/03/13 01:33:18;;;;;;;31.55;7.68;;;8.90;99.90;;;;;;5007305;28;20518;-62
2023/03/13 01:35:44;;;;;;;27.25;6.43;;;8.90;99.90;;;;;;5007887;28;20117;-62
2023/03/13 01:38:11;;;;;;;25.40;8.18;;;;;;;;;;5006114;28;20471;-61
2023/03/13 01:40:47;;;;;;;29.60;7.05;;;;;;;;;;5008231;28;20033;-62
2023/03/13 01:43:22;;;;;;;28.77;7.88;;;;;;;;;;5005632;28;20400;-62
2023/03/13 01:46:00;;;;;;;33.38;8.32;;;;;;;;;;4999794;28;20462;-62
2023/03/13 01:48:34;;;;;;;33.72;8.98;;;9.20;99.90;;;;;;5019070;28;20117;-61
2023/03/13 01:51:02;;;;;;;32.28;9.68;;;8.90;99.90;;;;;;5001737;28;20046;-61
2023/03/13 01:53:30;;;;;;;28.40;8.88;;;9.20;99.90;;;;;;5011977;28;20092;-63
2023/03/13 01:55:57;;;;;;;37.88;10.57;;;;;;;;;;5005912;28;20034;-62
2023/03/13 01:58:23;;;;;;;31.80;10.88;;;;;;;;;;4997452;28;20038;-62
2023/03/13 02:00:49;;;;;;;43.80;10.05;;;;;;;;;;4998870;28;20065;-63
2023/03/13 02:03:17;;;;;;;32.50;10.07;;;;;;;;;;5007114;28;20030;-62
2023/03/13 02:05:44;;;;;;;31.40;11.05;;;;;;;;;;5006222;28;20109;-63
2023/03/13 02:08:39;;;;;;;25.52;10.30;;;8.10;99.90;;;;;;5003988;28;20034;-66
2023/03/13 02:11:12;;;;;;;26.98;10.80;;;;;;;;;;5000181;28;20495;-63
2023/03/13 02:13:38;;;;;;;32.08;10.75;;;;;;;;;;5006518;28;20092;-63
2023/03/13 02:16:04;;;;;;;26.05;11.02;;;;;;;;;;5003692;28;20062;-62
2023/03/13 02:18:30;;;;;;;26.35;10.50;;;;;;;;;;5000275;28;20048;-62
2023/03/13 02:21:07;;;;;;;25.48;10.80;;;8.80;99.90;;;;;;5001387;28;20038;-62
2023/03/13 02:23:39;;;;;;;28.13;10.65;;;;;;;;;;5012254;28;20034;-62
2023/03/13 02:26:05;;;;;;;30.27;10.95;;;8.70;99.90;;;;;;4997997;28;20061;-62
2023/03/13 02:28:33;;;;;;;28.55;11.60;;;;;;;;;;4993771;28;20038;-62
2023/03/13 02:30:59;;;;;;;25.42;10.75;;;9.50;99.90;;;;;;4997413;28;20065;-62
2023/03/13 02:33:30;;;;;;;29.85;11.13;;;;;;;;;;5004805;28;20045;-62
2023/03/13 02:35:57;;;;;;;28.20;11.02;;;8.80;99.90;;;;;;5013993;28;20483;-63
2023/03/13 02:38:27;;;;;;;24.77;9.77;;;;;;;;;;4997596;28;20034;-63
2023/03/13 02:40:55;;;;;;;17.55;8.82;;;8.90;99.90;;;;;;5006180;28;20775;-63
2023/03/13 02:43:39;;;;;;;27.83;10.38;;;;;;;;;;5008615;28;20100;-62
2023/03/13 02:46:08;;;;;;;16.92;8.40;;;;;;;;;;5001361;28;20100;-62
2023/03/13 02:48:36;;;;;;;22.20;9.40;;;;;;;;;;4999674;28;20058;-63
2023/03/13 02:51:04;;;;;;;21.75;9.55;;;;;;;;;;5006855;28;20121;-62
2023/03/13 02:53:31;;;;;;;17.00;8.15;;;;;;;;;;5011533;28;20056;-62
2023/03/13 02:55:57;;;;;;;16.73;7.72;;;;;;;;;;5007750;28;20100;-62
2023/03/13 02:58:24;;;;;;;17.50;8.85;;;9.20;99.90;;;;;;5005574;28;20089;-62
2023/03/13 03:00:51;;;;;;;9.98;5.50;;;;;;;;;;5000144;28;20053;-62
2023/03/13 03:03:17;;;;;;;16.20;8.55;;;;;;;;;;5011444;28;20064;-62
2023/03/13 03:05:43;;;;;;;14.45;7.38;;;;;;;;;;4996334;28;20092;-62
2023/03/13 03:08:09;;;;;;;19.52;8.55;;;;;;;;;;5004624;28;20117;-62
2023/03/13 03:10:36;;;;;;;18.90;7.68;;;;;;;;;;5005619;28;20049;-62
2023/03/13 03:13:01;;;;;;;18.42;8.57;;;9.30;1.00;;;;;;5010874;28;20071;-62
2023/03/13 03:15:27;;;;;;;16.15;7.53;;;;;;;;;;4993752;28;20043;-62
2023/03/13 03:17:53;;;;;;;18.17;7.25;;;;;;;;;;5007726;28;20517;-62
2023/03/13 03:20:19;;;;;;;13.38;6.25;;;;;;;;;;5001578;28;20048;-62
2023/03/13 03:22:45;;;;;;;14.85;8.35;;;9.40;1.00;;;;;;4999494;28;20038;-62
2023/03/13 03:25:11;;;;;;;17.92;8.05;;;;;;;;;;5002181;28;20503;-63
2023/03/13 03:27:37;;;;;;;15.32;7.85;;;;;;;;;;5006119;28;20049;-63
2023/03/13 03:30:04;;;;;;;14.02;7.47;;;;;;;;;;5000791;28;20033;-62
2023/03/13 03:32:30;;;;;;;16.10;7.32;;;;;;;;;;5000902;28;20060;-62
2023/03/13 03:34:55;;;;;;;11.98;6.60;;;9.60;1.00;;;;;;5009680;28;20038;-63
2023/03/13 03:37:21;;;;;;;12.75;6.90;;;9.50;1.00;;;;;;5007783;28;20034;-63
2023/03/13 03:39:47;;;;;;;13.85;6.22;;;;;;;;;;5010566;28;20038;-62
2023/03/13 03:42:13;;;;;;;13.43;6.68;;;;;;;;;;5009827;28;20038;-63
2023/03/13 03:44:39;;;;;;;18.45;8.48;;;;;;;;;;5008092;28;20531;-63
2023/03/13 03:47:05;;;;;;;10.90;5.32;;;;;;;;;;5014362;28;20069;-63
2023/03/13 03:49:31;;;;;;;14.55;6.88;;;;;;;;;;4985758;28;20073;-62
2023/03/13 03:51:57;;;;;;;13.85;6.88;;;;;;;;;;5011149;28;20072;-63
2023/03/13 03:54:23;;;;;;;14.30;7.10;;;9.70;1.00;;;;;;5006743;28;20042;-63
2023/03/13 03:56:48;;;;;;;16.58;8.07;;;9.70;1.00;;;;;;5005849;28;20095;-62
2023/03/13 03:59:14;;;;;;;15.15;6.95;;;9.80;1.00;;;;;;5017123;28;20044;-63
2023/03/13 04:01:40;;;;;;;18.05;8.05;;;;;;;;;;5005664;28;20117;-62
2023/03/13 04:04:06;;;;;;;21.00;10.70;;;;;;;;;;5003143;28;20041;-62
2023/03/13 04:06:32;;;;;;;27.33;13.88;;;;;;;;;;5002317;28;20042;-63
2023/03/13 04:08:58;;;;;;;26.77;13.52;;;;;;;;;;5012289;28;20152;-63
2023/03/13 04:11:24;;;;;;;20.35;11.68;;;;;;;;;;5007275;28;20080;-63
2023/03/13 04:13:50;;;;;;;23.17;11.85;;;10.40;1.00;;;;;;5010390;28;20072;-62
2023/03/13 04:16:15;;;;;;;30.40;15.23;;;10.30;1.00;;;;;;5003293;28;20065;-62
2023/03/13 04:18:41;;;;;;;29.42;14.05;;;;;;;;;;5008872;28;20034;-62
2023/03/13 04:21:07;;;;;;;20.25;10.95;;;;;;;;;;5012694;28;20041;-62
2023/03/13 04:23:33;;;;;;;27.73;14.52;;;;;;;;;;5000139;28;20554;-62
2023/03/13 04:25:59;;;;;;;28.63;14.10;;;;;;;;;;4994618;28;20041;-62
2023/03/13 04:28:25;;;;;;;25.83;11.27;;;;;;;;;;4996618;28;20142;-62
2023/03/13 04:30:56;;;;;;;26.35;10.65;;;;;;;;;;5009313;28;20579;-61
2023/03/13 04:33:22;;;;;;;26.77;10.48;;;;;;;;;;5011012;28;20045;-61
2023/03/13 04:35:48;;;;;;;26.73;10.85;;;;;;;;;;5005104;28;20038;-61
2023/03/13 04:38:14;;;;;;;27.75;10.63;;;;;;;;;;5005372;28;20456;-61
2023/03/13 04:40:40;;;;;;;16.92;7.57;;;;;;;;;;5011296;28;20048;-61
2023/03/13 04:43:05;;;;;;;15.77;6.95;;;10.80;1.00;;;;;;5007437;28;20064;-61
2023/03/13 04:45:31;;;;;;;25.90;10.13;;;10.80;1.00;;;;;;5013787;28;20034;-61
2023/03/13 04:47:57;;;;;;;17.52;8.25;;;;;;;;;;5014324;28;20030;-61
2023/03/13 04:50:23;;;;;;;25.92;9.30;;;;;;;;;;5010013;28;20414;-61
2023/03/13 04:52:49;;;;;;;25.98;8.90;;;;;;;;;;5015027;28;20066;-61
2023/03/13 04:55:15;;;;;;;21.48;7.15;;;;;;;;;;5003202;28;20076;-62
2023/03/13 04:57:41;;;;;;;16.52;7.00;;;;;;;;;;5014993;28;20045;-62
2023/03/13 05:00:07;;;;;;;18.38;6.15;;;;;;;;;;5004092;28;20395;-63
2023/03/13 05:02:33;;;;;;;23.27;7.78;;;;;;;;;;5006061;28;20053;-62
2023/03/13 05:04:59;;;;;;;18.50;6.10;;;;;;;;;;5006038;28;20092;-62
2023/03/13 05:07:25;;;;;;;17.40;6.45;;;10.80;1.00;;;;;;5003424;28;20046;-62
2023/03/13 05:09:50;;;;;;;15.52;5.45;;;11.00;1.00;;;;;;5005956;28;20398;-62
2023/03/13 05:12:16;;;;;;;20.77;5.57;;;;;;;;;;5007634;28;20030;-62
2023/03/13 05:14:42;;;;;;;13.70;5.63;;;;;;;;;;4996949;28;20046;-62
2023/03/13 05:17:09;;;;;;;17.58;5.30;;;;;;;;;;4993218;28;20046;-62
2023/03/13 05:19:35;;;;;;;19.73;5.47;;;11.00;1.00;;;;;;5016799;28;20044;-62
2023/03/13 05:22:01;;;;;;;19.60;5.35;;;;;;;;;;4991702;28;20042;-62
2023/03/13 05:24:27;;;;;;;11.75;4.93;;;;;;;;;;5001908;28;20164;-62
2023/03/13 05:26:53;;;;;;;12.57;5.90;;;11.10;99.90;;;;;;4996826;28;20073;-63
2023/03/13 05:29:19;;;;;;;12.40;5.75;;;;;;;;;;5014583;28;20131;-63
2023/03/13 05:31:45;;;;;;;17.90;5.47;;;;;;;;;;5006230;28;20038;-63
2023/03/13 05:34:11;;;;;;;19.58;6.45;;;;;;;;;;5002607;28;20042;-63
2023/03/13 05:36:37;;;;;;;21.13;7.35;;;;;;;;;;5002498;28;20045;-62
2023/03/13 05:39:03;;;;;;;16.40;5.65;;;;;;;;;;5005258;28;20034;-62
2023/03/13 05:41:29;;;;;;;13.88;5.53;;;11.10;99.90;;;;;;5001640;28;20046;-63
2023/03/13 05:43:54;;;;;;;17.05;4.75;;;11.00;99.90;;;;;;4999601;28;20407;-62
2023/03/13 05:46:20;;;;;;;19.50;7.18;;;;;;;;;;4996258;28;20042;-62
2023/03/13 05:48:47;;;;;;;13.85;6.78;;;;;;;;;;5003305;28;20049;-63
2023/03/13 05:51:12;;;;;;;15.68;5.80;;;11.00;99.90;;;;;;5007287;28;20033;-63
2023/03/13 05:53:38;;;;;;;16.38;6.88;;;;;;;;;;4996888;28;20049;-63
2023/03/13 05:56:04;;;;;;;15.50;6.78;;;;;;;;;;4998670;28;20407;-63
2023/03/13 05:58:31;;;;;;;17.13;7.15;;;;;;;;;;4983699;28;20038;-62
2023/03/13 06:00:57;;;;;;;19.70;6.85;;;;;;;;;;4999125;28;20600;-63
2023/03/13 06:03:23;;;;;;;26.27;7.30;;;;;;;;;;5003658;28;20042;-63
2023/03/13 06:05:49;;;;;;;17.38;5.70;;;;;;;;;;5003566;28;20038;-63
2023/03/13 06:08:15;;;;;;;13.98;5.35;;;;;;;;;;5005556;28;20038;-63
2023/03/13 06:10:40;;;;;;;15.85;6.72;;;11.00;99.90;;;;;;5011626;28;20115;-62
2023/03/13 06:13:06;;;;;;;15.30;5.70;;;11.10;99.90;;;;;;5014498;28;20132;-62
2023/03/13 06:15:32;;;;;;;23.08;6.47;;;;;;;;;;5008714;28;20037;-62
2023/03/13 06:17:58;;;;;;;18.58;6.43;;;;;;;;;;5001510;28;20073;-63
2023/03/13 06:20:24;;;;;;;16.42;6.07;;;;;;;;;;5009508;28;20081;-63
2023/03/13 06:22:50;;;;;;;16.77;5.90;;;;;;;;;;4997310;28;20389;-63
2023/03/13 06:25:16;;;;;;;17.30;6.22;;;;;;;;;;5007607;28;20041;-63
2023/03/13 06:27:42;;;;;;;16.58;6.25;;;;;;;;;;4995500;28;20122;-62
2023/03/13 06:30:09;;;;;;;18.92;6.22;;;;;;;;;;5001333;28;20041;-63
2023/03/13 06:32:35;;;;;;;13.93;5.55;;;;;;;;;;5008746;28;20042;-62
2023/03/13 06:35:01;;;;;;;17.15;4.70;;;;;;;;;;5018949;28;20049;-63
2023/03/13 06:37:27;;;;;;;18.63;4.82;;;;;;;;;;5018258;28;20037;-63
2023/03/13 06:39:53;;;;;;;12.07;4.50;;;;;;;;;;5008288;28;20045;-63
2023/03/13 06:42:19;;;;;;;12.63;4.55;;;;;;;;;;5018372;28;20515;-63
2023/03/13 06:44:44;;;;;;;15.60;5.25;;;11.50;99.90;;;;;;5007017;28;20042;-62
2023/03/13 06:47:10;;;;;;;28.10;6.60;;;;;;;;;;5009806;28;20029;-63
2023/03/13 06:49:36;;;;;;;11.80;3.83;;;11.60;99.90;;;;;;5013788;28;20069;-63
2023/03/13 06:52:02;;;;;;;22.10;5.05;;;;;;;;;;5001815;28;20037;-63
2023/03/13 06:54:28;;;;;;;21.80;4.93;;;;;;;;;;5017105;28;20396;-62
2023/03/13 06:56:54;;;;;;;13.85;5.20;;;;;;;;;;5010921;28;20048;-63
2023/03/13 06:59:20;;;;;;;11.57;3.92;;;;;;;;;;5018849;28;20042;-62
2023/03/13 07:01:46;;;;;;;15.45;4.82;;;11.60;99.90;;;;;;5014949;28;20133;-62
2023/03/13 07:04:12;;;;;;;13.95;5.65;;;;;;;;;;5011812;28;20475;-62
2023/03/13 07:06:38;;;;;;;20.88;5.95;;;;;;;;;;5013769;28;20041;-62
2023/03/13 07:09:04;;;;;;;15.68;5.40;;;11.40;99.90;;;;;;5010340;28;20099;-62
2023/03/13 07:11:30;;;;;;;14.93;4.50;;;11.40;99.90;;;;;;5002270;28;20476;-62
2023/03/13 07:14:00;;;;;;;16.95;4.47;;;;;;;;;;5015261;28;20083;-62
2023/03/13 07:16:26;;;;;;;18.40;5.72;;;11.40;1.00;;;;;;5017564;28;20052;-62
2023/03/13 07:18:52;;;;;;;14.70;4.40;;;;;;;;;;5006092;28;20039;-62
2023/03/13 07:21:18;;;;;;;15.88;5.47;;;;;;;;;;5017028;28;20037;-62
2023/03/13 07:23:44;;;;;;;11.32;3.95;;;;;;;;;;5010392;28;20486;-62
2023/03/13 07:26:14;;;;;;;12.65;4.75;;;10.80;99.90;;;;;;5006398;28;20034;-62
2023/03/13 07:28:41;;;;;;;14.60;4.50;;;12.10;99.90;;;;;;5008843;28;20053;-62
2023/03/13 07:31:16;;;;;;;12.82;4.18;;;12.00;1.00;;;;;;5001819;28;20375;-63
2023/03/13 07:33:43;;;;;;;12.88;4.20;;;11.20;99.90;;;;;;5013273;28;20495;-63
2023/03/13 07:36:10;;;;;;;15.88;4.70;;;;;;;;;;5013395;28;20061;-62
2023/03/13 07:38:36;;;;;;;12.82;4.05;;;;;;;;;;5003150;28;20042;-62
2023/03/13 07:41:03;;;;;;;16.98;4.47;;;;;;;;;;5014355;28;20100;-62
2023/03/13 07:43:30;;;;;;;11.20;4.25;;;;;;;;;;5002674;28;20125;-62
2023/03/13 07:46:03;;;;;;;19.02;4.60;;;;;;;;;;5008318;28;20049;-63
2023/03/13 07:48:34;;;;;;;18.38;4.63;;;11.20;99.90;;;;;;5000124;28;20092;-62
2023/03/13 07:51:01;;;;;;;12.40;4.95;;;11.50;99.90;;;;;;5010592;28;20376;-62
2023/03/13 07:53:29;;;;;;;16.80;5.10;;;;;;;;;;5009341;28;20042;-62
2023/03/13 07:56:04;;;;;;;20.15;4.57;;;12.00;99.90;;;;;;5007083;28;20042;-62
2023/03/13 07:58:33;;;;;;;12.90;4.18;;;12.10;99.90;;;;;;5017145;28;20081;-62
2023/03/13 08:00:58;;;;;;;10.52;4.88;;;11.60;99.90;;;;;;5005671;28;20403;-62
2023/03/13 08:03:25;;;;;;;11.77;3.90;;;11.60;99.90;;;;;;5016360;28;20045;-62
2023/03/13 08:06:05;;;;;;;15.20;4.53;;;11.60;99.90;;;;;;5013795;28;20037;-62
2023/03/13 08:08:31;;;;;;;14.27;3.95;;;;;;;;;;4997696;28;20161;-62
2023/03/13 08:11:16;;;;;;;13.00;4.50;;;;;;;;;;5009255;28;20041;-62
2023/03/13 08:13:42;;;;;;;13.38;4.10;;;;;;;;;;4997475;28;20129;-62
2023/03/13 08:16:11;;;;;;;12.43;4.05;;;12.30;99.90;;;;;;5016039;28;20042;-62
2023/03/13 08:18:39;;;;;;;11.07;4.03;;;11.50;99.90;;;;;;5014547;28;20117;-62
2023/03/13 08:21:13;;;;;;;14.60;4.55;;;;;;;;;;5016017;28;20042;-62
2023/03/13 08:23:39;;;;;;;10.27;4.55;;;;;;;;;;5009794;28;20422;-62
2023/03/13 08:26:10;;;;;;;11.15;3.85;;;;;;;;;;5000687;28;20095;-62
2023/03/13 08:28:36;;;;;;;11.57;3.92;;;;;;;;;;5011867;28;20073;-62
2023/03/13 08:31:09;;;;;;;13.70;4.13;;;;;;;;;;5008737;28;20078;-62
2023/03/13 08:33:35;;;;;;;13.63;4.50;;;;;;;;;;5009371;28;20157;-62
2023/03/13 08:36:12;;;;;;;13.60;3.97;;;;;;;;;;5008954;28;20045;-62
2023/03/13 08:38:41;;;;;;;12.57;3.83;;;;;;;;;;5011643;28;20041;-62
2023/03/13 08:41:07;;;;;;;11.63;4.07;;;;;;;;;;5006063;28;20044;-62
2023/03/13 08:43:33;;;;;;;13.63;3.33;;;;;;;;;;5007438;28;20098;-62
2023/03/13 08:45:59;;;;;;;12.60;3.63;;;;;;;;;;5009502;28;20049;-62
2023/03/13 08:48:25;;;;;;;10.85;3.92;;;;;;;;;;5010151;28;20133;-62
2023/03/13 08:51:01;;;;;;;14.90;3.83;;;;;;;;;;5008699;28;20180;-62
2023/03/13 08:53:27;;;;;;;12.80;5.00;;;;;;;;;;4998470;28;20124;-62
2023/03/13 08:55:53;;;;;;;12.57;3.95;;;12.60;99.90;;;;;;5013579;28;20399;-62
2023/03/13 08:58:19;;;;;;;8.35;2.97;;;;;;;;;;5006117;28;20040;-62
2023/03/13 09:00:45;;;;;;;11.95;3.45;;;;;;;;;;5001291;28;20065;-62
2023/03/13 09:03:11;;;;;;;10.35;3.47;;;;;;;;;;5012072;28;20030;-62
2023/03/13 09:05:37;;;;;;;13.65;4.30;;;12.70;1.00;;;;;;4999079;28;20029;-62
2023/03/13 09:08:03;;;;;;;7.07;2.53;;;;;;;;;;5015092;28;20041;-62
2023/03/13 09:10:31;;;;;;;22.65;4.25;;;12.60;1.00;;;;;;5011389;28;20399;-62
2023/03/13 09:12:57;;;;;;;7.10;3.05;;;12.50;1.00;;;;;;4999561;28;20034;-61
2023/03/13 09:15:23;;;;;;;11.00;2.92;;;;;;;;;;5006244;28;20121;-61
2023/03/13 09:17:49;;;;;;;12.93;4.63;;;12.50;99.90;;;;;;5004567;28;20038;-61
2023/03/13 09:20:15;;;;;;;15.15;3.40;;;;;;;;;;5016829;28;20041;-62
2023/03/13 09:22:41;;;;;;;15.70;3.78;;;;;;;;;;5010664;28;20141;-61
2023/03/13 09:25:07;;;;;;;16.13;4.53;;;;;;;;;;5009698;28;20077;-61
2023/03/13 09:27:33;;;;;;;31.55;5.40;;;;;;;;;;5006498;28;20388;-61
2023/03/13 09:29:59;;;;;;;15.95;4.43;;;12.50;99.90;;;;;;5009026;28;20116;-61
2023/03/13 09:32:24;;;;;;;15.48;4.65;;;12.50;99.90;;;;;;5003526;28;20168;-61
2023/03/13 09:34:50;;;;;;;15.43;4.40;;;;;;;;;;5017852;28;20069;-61
2023/03/13 09:37:16;;;;;;;13.13;3.03;;;;;;;;;;5011642;28;20040;-61
2023/03/13 09:39:42;;;;;;;19.90;4.25;;;;;;;;;;5016558;28;20042;-61
2023/03/13 09:42:16;;;;;;;13.07;3.65;;;;;;;;;;5015271;28;20037;-61
2023/03/13 09:45:01;;;;;;;12.10;3.92;;;;;;;;;;5018184;28;20125;-61
2023/03/13 09:47:32;;;;;;;13.00;4.07;;;;;;;;;;5008941;28;20099;-61
2023/03/13 09:50:10;;;;;;;11.13;3.15;;;;;;;;;;5016164;28;20059;-62
2023/03/13 09:52:40;;;;;;;16.50;3.95;;;12.70;99.90;;;;;;5018406;28;20487;-61
2023/03/13 09:55:09;;;;;;;14.70;3.85;;;;;;;;;;5016364;28;20046;-61
2023/03/13 09:57:35;;;;;;;15.80;3.55;;;;;;;;;;5017796;28;20045;-61
2023/03/13 10:00:21;;;;;;;16.15;3.58;;;;;;;;;;4999066;28;20407;-61
2023/03/13 10:02:56;;;;;;;12.02;4.05;;;12.70;99.90;;;;;;5031547;28;20502;-61
2023/03/13 10:05:29;;;;;;;18.20;2.92;;;13.50;99.90;;;;;;5013044;28;20045;-61
2023/03/13 10:08:02;;;;;;;11.88;3.80;;;;;;;;;;5011002;28;20041;-61
2023/03/13 10:10:51;;;;;;;16.85;3.60;;;;;;;;;;5000483;28;20042;-61
2023/03/13 10:13:27;;;;;;;20.85;4.80;;;;;;;;;;4995041;28;20054;-61
2023/03/13 10:15:57;;;;;;;8.10;2.78;;;13.50;99.90;;;;;;5014918;28;20037;-61
2023/03/13 10:18:23;;;;;;;16.42;4.50;;;13.70;99.90;;;;;;5017325;28;20042;-62
2023/03/13 10:20:54;;;;;;;14.48;4.93;;;;;;;;;;5017719;28;20495;-62
2023/03/13 10:23:26;;;;;;;13.23;3.72;;;;;;;;;;5004254;28;20050;-61
2023/03/13 10:25:52;;;;;;;20.30;4.70;;;13.50;99.90;;;;;;5014949;28;20045;-61
2023/03/13 10:28:19;;;;;;;17.80;3.78;;;13.50;99.90;;;;;;5007305;28;20483;-61
2023/03/13 10:30:51;;;;;;;15.57;3.58;;;13.30;95.20;;;;;;5010182;28;20402;-61
2023/03/13 10:33:24;;;;;;;17.60;4.78;;;;;;;;;;5003397;28;20545;-61
2023/03/13 10:36:00;;;;;;;17.10;4.80;;;;;;;;;;5016005;28;20682;-61
2023/03/13 10:38:26;;;;;;;15.63;3.97;;;;;;;;;;5014827;28;20061;-61
2023/03/13 10:40:59;;;;;;;14.38;3.40;;;13.40;81.50;;;;;;5015243;28;20194;-62
2023/03/13 10:43:26;;;;;;;12.88;3.28;;;;;;;;;;5014082;28;20041;-61
2023/03/13 10:45:52;;;;;;;17.52;4.18;;;;;;;;;;5021568;28;20033;-61
2023/03/13 10:48:24;;;;;;;15.18;3.90;;;14.10;69.70;;;;;;5007984;28;20042;-62
2023/03/13 10:50:56;;;;;;;12.23;3.50;;;13.40;99.90;;;;;;5003461;28;20030;-62
2023/03/13 10:53:28;;;;;;;11.80;3.38;;;;;;;;;;5007524;28;20503;-62
2023/03/13 10:56:13;;;;;;;18.42;3.97;;;13.80;49.60;;;;;;5018504;28;20052;-62
2023/03/13 10:58:49;;;;;;;14.52;4.03;;;;;;;;;;5001829;28;20049;-62
2023/03/13 11:01:16;;;;;;;15.90;3.78;;;;;;;;;;5002718;28;20046;-62
2023/03/13 11:03:42;;;;;;;12.07;3.63;;;;;;;;;;5020695;28;20116;-62
2023/03/13 11:06:29;;;;;;;13.38;3.80;;;14.30;99.90;;;;;;5013732;28;20044;-62
2023/03/13 11:09:14;;;;;;;11.20;3.88;;;;;;;;;;5011161;28;20065;-62
2023/03/13 11:11:43;;;;;;;12.07;3.53;;;;;;;;;;5008576;28;20046;-62
2023/03/13 11:14:14;;;;;;;12.95;4.18;;;14.30;27.60;;;;;;5017283;28;20463;-62
2023/03/13 11:17:02;;;;;;;13.57;4.63;;;;;;;;;;5014539;28;20030;-61
2023/03/13 11:19:41;;;;;;;17.15;4.03;;;;;;;;;;5015045;28;20080;-61
2023/03/13 11:22:14;;;;;;;14.75;3.85;;;;;;;;;;5006384;28;20045;-61
2023/03/13 11:25:13;;;;;;;11.13;3.47;;;;;;;;;;5006534;28;20046;-61
2023/03/13 11:27:45;;;;;;;13.75;4.25;;;;;;;;;;4983365;28;20475;-61
2023/03/13 11:30:30;;;;;;;12.27;2.88;;;15.30;99.90;;;;;;5012780;28;20619;-61
2023/03/13 11:33:01;;;;;;;11.05;3.40;;;;;;;;;;5007527;28;20093;-61
2023/03/13 11:35:27;;;;;;;13.27;4.35;;;;;;;;;;5006197;28;20077;-61
2023/03/13 11:37:56;;;;;;;14.30;3.92;;;15.00;99.90;;;;;;5014878;28;20070;-61
2023/03/13 11:40:30;;;;;;;18.30;4.20;;;14.50;12.70;;;;;;5017949;28;20439;-61
2023/03/13 11:43:15;;;;;;;15.88;4.20;;;;;;;;;;5006018;28;20046;-60
2023/03/13 11:45:46;;;;;;;11.73;3.55;;;;;;;;;;4998543;28;20089;-60
2023/03/13 11:48:28;;;;;;;20.00;5.25;;;15.30;99.90;;;;;;5006609;28;20045;-60
2023/03/13 11:50:58;;;;;;;18.13;5.55;;;;;;;;;;5013713;28;20049;-60
2023/03/13 11:53:24;;;;;;;12.88;3.40;;;;;;;;;;5001294;28;20042;-60
2023/03/13 11:56:11;;;;;;;15.50;3.88;;;;;;;;;;5020522;28;20036;-60
2023/03/13 11:58:57;;;;;;;13.30;4.00;;;;;;;;;;5000281;28;20100;-59
2023/03/13 12:01:27;;;;;;;14.70;3.28;;;15.50;13.40;;;;;;5002713;28;20381;-60
2023/03/13 12:03:56;;;;;;;14.57;4.05;;;;;;;;;;5010646;28;20136;-60
2023/03/13 12:06:42;;;;;;;23.10;4.93;;;14.50;99.90;;;;;;5015503;28;20048;-60
2023/03/13 12:09:08;;;;;;;12.18;3.97;;;;;;;;;;5019503;28;20033;-61
2023/03/13 12:11:34;;;;;;;18.63;5.22;;;14.70;99.90;;;;;;5009292;28;20038;-61
2023/03/13 12:14:14;;;;;;;34.28;3.90;;;15.10;99.90;;;;;;5015404;28;20053;-60
2023/03/13 12:16:59;;;;;;;13.70;4.05;;;15.00;99.90;;;;;;5014000;28;20073;-60
2023/03/13 12:19:30;;;;;;;18.45;5.40;;;;;;;;;;5007137;28;20034;-60
2023/03/13 12:22:11;;;;;;;17.25;4.40;;;14.90;99.90;;;;;;5011499;28;20072;-61
2023/03/13 12:24:50;;;;;;;20.60;4.63;;;;;;;;;;5008692;28;20133;-61
2023/03/13 12:27:22;;;;;;;14.32;4.32;;;;;;;;;;5009681;28;20092;-60
2023/03/13 12:29:59;;;;;;;16.40;4.50;;;16.90;99.90;;;;;;5002525;28;20129;-60
2023/03/13 12:32:39;;;;;;;10.98;3.40;;;;;;;;;;4998720;28;20053;-60
2023/03/13 12:35:27;;;;;;;11.07;3.38;;;18.00;99.90;;;;;;5016238;28;20041;-61
2023/03/13 12:37:57;;;;;;;14.32;3.95;;;17.60;99.90;;;;;;5015209;28;20406;-61
2023/03/13 12:40:22;;;;;;;15.07;5.55;;;18.30;99.90;;;;;;5017226;28;20508;-60
2023/03/13 12:42:55;;;;;;;16.45;3.28;;;;;;;;;;5006803;28;20053;-61
2023/03/13 12:45:24;;;;;;;12.02;4.40;;;19.10;99.90;;;;;;5004297;28;20443;-60
2023/03/13 12:47:53;;;;;;;13.32;4.63;;;18.30;99.90;;;;;;5000356;28;20042;-60
2023/03/13 12:50:34;;;;;;;13.13;3.35;;;19.30;99.90;;;;;;5000969;28;20506;-60
2023/03/13 12:53:36;;;;;;;20.40;5.38;;;;;;;;;;5013168;28;20042;-61
2023/03/13 12:56:20;;;;;;;16.33;3.85;;;;;;;;;;4977908;28;20051;-60
2023/03/13 12:58:48;;;;;;;24.95;4.82;;;;;;;;;;5009851;28;20188;-60
2023/03/13 13:01:40;;;;;;;14.80;3.70;;;;;;;;;;5015675;28;20102;-60
2023/03/13 13:04:12;;;;;;;14.55;3.92;;;18.10;99.90;;;;;;5001612;28;20780;-60
2023/03/13 13:07:05;;;;;;;14.38;4.20;;;18.50;99.90;;;;;;5009515;28;20046;-60
2023/03/13 13:09:34;;;;;;;17.38;5.28;;;;;;;;;;5008052;28;20091;-60
2023/03/13 13:12:21;;;;;;;15.10;4.05;;;18.20;99.90;;;;;;5017864;28;20092;-59
2023/03/13 13:14:47;;;;;;;12.65;3.47;;;18.50;99.90;;;;;;5009006;28;20049;-59
2023/03/13 13:17:28;;;;;;;11.80;4.50;;;;;;;;;;5011682;28;20048;-60
2023/03/13 13:19:55;;;;;;;13.18;4.18;;;18.40;99.90;;;;;;5017252;28;20129;-60
2023/03/13 13:22:36;;;;;;;18.13;5.68;;;;;;;;;;5022521;28;20054;-59
2023/03/13 13:25:17;;;;;;;18.27;4.70;;;18.90;99.90;;;;;;5018833;28;20048;-60
2023/03/13 13:27:42;;;;;;;24.08;6.18;;;18.50;99.90;;;;;;5019692;28;20507;-59
2023/03/13 13:30:17;;;;;;;15.45;4.55;;;18.00;99.90;;;;;;5016737;28;20029;-59
2023/03/13 13:32:46;;;;;;;16.33;4.82;;;18.80;1.00;;;;;;5012649;28;20555;-59
2023/03/13 13:35:11;;;;;;;16.38;5.32;;;18.60;99.90;;;;;;5006751;28;20040;-59
2023/03/13 13:37:40;;;;;;;18.45;5.03;;;18.50;99.90;;;;;;5012226;28;20042;-60
2023/03/13 13:40:22;;;;;;;13.80;4.07;;;18.80;99.90;;;;;;5021396;28;20038;-60
2023/03/13 13:42:49;;;;;;;21.50;5.75;;;18.30;99.90;;;;;;5016083;28;20523;-60
2023/03/13 13:45:16;;;;;;;11.27;3.72;;;18.70;1.00;;;;;;5019781;28;20128;-60
2023/03/13 13:47:47;;;;;;;16.35;4.85;;;19.40;99.90;;;;;;5012072;28;20065;-60
2023/03/13 13:50:24;;;;;;;16.45;5.70;;;;;;;;;;5008513;28;20045;-60
2023/03/13 13:52:50;;;;;;;13.85;4.15;;;18.60;99.90;;;;;;5010647;28;20456;-60
2023/03/13 13:55:42;;;;;;;15.77;4.50;;;18.40;99.90;;;;;;5014251;28;20037;-60
2023/03/13 13:58:20;;;;;;;17.25;4.97;;;;;;;;;;5014197;28;20033;-60